Sand Springs, MT (59077)

12:50 AM MST on February 12, 2016 (GMT -0700)
Union Creek | | Change Station
CLOSE
Current Station
Personal Weather Station
Location: Montana, MT
Elevation: 2910 ft
Nearby Weather Stations

Elev 2910 ft 47.26 °N, 107.56 °W | Updated 5 minutes ago

Overcast
Overcast
30.8 °F
Feels Like 31 °F
N
0.0
Wind Variable Wind from SE
Gusts 0.0 mph

Today
High -- | Low -- °F
--% Chance of Precip.
Yesterday
High -- | Low -- °F
Precip. -- in
Pressure 30.35 in
Visibility 10.0 miles
Clouds Overcast 2200 ft
Windchill 31 °F
Dew Point 29 °F
Humidity 94%
Rainfall 0.00 in
Snow Depth Not available.
7:19 AM 5:28 PM
Waxing Crescent, 18% visible
METAR KMLS 120653Z AUTO 34003KT 10SM OVC022 M01/M03 A3030 RMK AO2 SLP278 T10061033 401061017
Pressure 30.35 in
Visibility 10.0 miles
Clouds Overcast 2200 ft
Windchill 31 °F
Dew Point 29 °F
Humidity 94%
Rainfall 0.00 in
Snow Depth Not available.
7:19 AM 5:28 PM
Waxing Crescent, 18% visible
METAR KMLS 120653Z AUTO 34003KT 10SM OVC022 M01/M03 A3030 RMK AO2 SLP278 T10061033 401061017

10-Day Weather Forecast

Almanac

Astronomy

Feb. 12, 2016 Rise Set
Actual Time
Civil Twilight
Nautical Twilight
Astronomical Twilight
Moon
Length of Visible Light
Length of Day
Tomorrow will be .
, % of the Moon is Illuminated

Today's Extremes

State Highs State Lows

Community

WunderPhotos

Upload Photos

1,892,278 photos uploaded!

WunderBlog® & News

Nearby

Air Quality

  Air Quality AQ Index Pollutant
Not available.

Snow Depth

Station Depth Elevation

Earthquake Activity

City Distance Mag. Time & Date
Minimum magnitude displayed is 2.5.

Coastal Water Temperatures

Place Temperature

Stations

Nearby Weather Stations

Station Location Temp. Windchill Dew Point Humidity Wind Precip. Elev Updated Type
                   

Watches & Warnings

There are currently no watches in effect.